Time;durP1;ratioP1;P1;durP2;ratioP2;P2;SDS_P1;SDS_P2;PMS_P1;PMS_P2;Temp;Humidity;BMP_temperature;BMP_pressure;BME280_temperature;BME280_humidity;BME280_pressure;Samples;Min_cycle;Max_cycle;Signal;HPM_P1;HPM_P2
2023/07/20 00:02:09;;;;;;;0.30;0.30;;;26.70;65.00;;;27.23;49.33;94531.63;5075481;28;20201;-37
2023/07/20 00:04:36;;;;;;;0.30;0.30;;;26.70;65.10;;;27.22;49.17;94530.06;5075314;28;20189;-36
2023/07/20 00:07:05;;;;;;;0.40;0.40;;;26.70;65.10;;;27.21;49.38;94523.06;5075316;28;20675;-37
2023/07/20 00:09:32;;;;;;;0.30;0.30;;;26.60;65.10;;;27.19;49.54;94522.56;5074616;28;20648;-37
2023/07/20 00:12:00;;;;;;;0.30;0.30;;;26.60;65.10;;;27.19;49.41;94527.97;5074904;28;20199;-37
2023/07/20 00:14:27;;;;;;;0.30;0.30;;;26.60;65.10;;;27.18;49.66;94526.38;5075400;28;20273;-37
2023/07/20 00:16:56;;;;;;;0.30;0.30;;;26.60;65.10;;;27.17;49.15;94530.97;5075482;28;20254;-36
2023/07/20 00:19:28;;;;;;;0.20;0.20;;;26.60;65.10;;;27.16;49.19;94540.16;5075967;28;20201;-37
2023/07/20 00:21:56;;;;;;;0.20;0.20;;;26.60;65.10;;;27.14;49.25;94550.41;5075504;28;20180;-37
2023/07/20 00:24:23;;;;;;;0.30;0.30;;;26.60;65.10;;;27.12;49.09;94549.94;5075185;28;20689;-37
2023/07/20 00:26:50;;;;;;;0.30;0.30;;;26.60;65.00;;;27.10;48.95;94551.31;5074923;28;20205;-36
2023/07/20 00:29:18;;;;;;;0.30;0.30;;;26.50;64.80;;;27.06;48.96;94545.78;5074423;28;20351;-36
2023/07/20 00:31:46;;;;;;;0.20;0.20;;;26.60;64.90;;;27.05;48.94;94546.06;5075581;28;20191;-36
2023/07/20 00:34:15;;;;;;;0.32;0.32;;;26.50;64.80;;;27.03;49.40;94532.94;5073972;28;20199;-36
2023/07/20 00:36:42;;;;;;;0.30;0.30;;;26.50;65.20;;;27.02;49.32;94531.31;5074286;28;20412;-37
2023/07/20 00:39:09;;;;;;;0.30;0.30;;;26.50;65.20;;;26.98;49.71;94524.97;5074369;28;20542;-37
2023/07/20 00:41:36;;;;;;;0.30;0.30;;;26.50;65.30;;;26.98;49.67;94523.06;5075668;28;20300;-37
2023/07/20 00:44:05;;;;;;;0.30;0.30;;;26.50;65.30;;;26.96;49.22;94516.41;5078943;28;20255;-36
2023/07/20 00:46:33;;;;;;;0.30;0.30;;;26.40;65.20;;;26.92;49.73;94508.16;5077761;28;20305;-37
2023/07/20 00:49:01;;;;;;;0.30;0.30;;;26.40;66.30;;;26.93;49.81;94517.81;5078023;28;20204;-36
2023/07/20 00:51:28;;;;;;;0.30;0.30;;;26.40;65.60;;;26.94;50.04;94514.03;5077671;28;20261;-37
2023/07/20 00:53:55;;;;;;;0.30;0.30;;;26.40;65.70;;;26.93;49.78;94517.81;5079035;28;20206;-36
2023/07/20 00:56:22;;;;;;;0.30;0.30;;;26.40;65.90;;;26.95;50.18;94520.19;5078590;28;20207;-38
2023/07/20 00:58:52;;;;;;;0.30;0.30;;;26.40;65.90;;;26.94;50.09;94521.28;5077388;28;20214;-37
2023/07/20 01:01:22;;;;;;;0.20;0.20;;;26.40;65.70;;;26.93;50.60;94522.41;5078651;28;20252;-38
2023/07/20 01:03:49;;;;;;;0.30;0.30;;;26.40;65.90;;;26.93;50.01;94522.41;5077189;28;20221;-38
2023/07/20 01:06:44;;;;;;;0.22;0.22;;;26.40;65.80;;;26.91;50.23;94522.69;5078158;28;20278;-38
2023/07/20 01:09:19;;;;;;;0.28;0.28;;;26.50;66.00;;;26.89;50.36;94524.91;5074669;28;20644;-37
2023/07/20 01:12:25;;;;;;;0.30;0.30;;;26.40;65.90;;;26.84;50.48;94523.13;5060696;28;20600;-38
2023/07/20 01:14:54;;;;;;;0.30;0.30;;;26.40;65.90;;;26.86;50.04;94522.03;5076928;28;20245;-38
2023/07/20 01:17:21;;;;;;;0.40;0.40;;;26.40;65.70;;;26.86;50.46;94516.66;5076999;28;20283;-38
2023/07/20 01:19:48;;;;;;;0.30;0.30;;;26.40;65.70;;;26.87;50.32;94520.91;5077964;28;20231;-38
2023/07/20 01:22:46;;;;;;;0.20;0.20;;;26.40;65.90;;;26.83;50.48;94523.41;5078163;28;20209;-38
2023/07/20 01:25:42;;;;;;;0.50;0.50;;;26.40;66.00;;;26.78;50.52;94521.66;5076706;28;20206;-38
2023/07/20 01:28:46;;;;;;;0.30;0.30;;;26.40;65.90;;;26.78;50.29;94515.47;5077858;28;20196;-38
2023/07/20 01:31:30;;;;;;;0.20;0.20;;;26.40;65.80;;;26.75;50.42;94511.50;5078055;28;20269;-38
2023/07/20 01:34:02;;;;;;;0.30;0.30;;;26.30;66.00;;;26.73;50.67;94510.97;5077635;28;20194;-38
2023/07/20 01:36:34;;;;;;;0.35;0.35;;;26.40;65.90;;;26.71;50.56;94513.19;5060306;28;20648;-38
2023/07/20 01:39:04;;;;;;;0.28;0.28;;;26.30;65.70;;;26.67;50.10;94521.06;5076672;28;20198;-38
2023/07/20 01:41:32;;;;;;;0.20;0.20;;;26.30;65.60;;;26.62;50.45;94513.13;5076716;28;20296;-38
2023/07/20 01:44:00;;;;;;;0.20;0.20;;;26.20;65.80;;;26.61;50.40;94513.41;5076410;28;20247;-38
2023/07/20 01:46:27;;;;;;;0.30;0.30;;;26.20;65.70;;;26.60;50.76;94515.31;5077771;28;20192;-38
2023/07/20 01:48:55;;;;;;;0.38;0.38;;;26.20;66.00;;;26.59;50.63;94516.41;5076480;28;20204;-38
2023/07/20 01:51:22;;;;;;;0.30;0.30;;;26.20;66.00;;;26.60;50.77;94507.25;5076761;28;20227;-37
2023/07/20 01:53:49;;;;;;;0.50;0.50;;;26.20;66.30;;;26.63;51.02;94497.75;5075124;28;20270;-38
2023/07/20 01:56:16;;;;;;;0.22;0.22;;;26.20;66.40;;;26.66;50.98;94507.94;5076377;28;20216;-38
2023/07/20 01:58:43;;;;;;;0.30;0.30;;;26.20;66.50;;;26.65;51.21;94504.44;5077344;28;20216;-38
2023/07/20 02:01:11;;;;;;;0.30;0.30;;;26.20;66.50;;;26.67;50.88;94514.88;5076341;28;20207;-38
2023/07/20 02:03:38;;;;;;;0.30;0.30;;;26.20;66.50;;;26.68;50.86;94516.47;5076446;28;20199;-38
2023/07/20 02:06:05;;;;;;;0.30;0.30;;;26.20;66.40;;;26.66;51.02;94518.69;5077101;28;20201;-37
2023/07/20 02:08:32;;;;;;;0.30;0.30;;;26.20;66.40;;;26.64;50.51;94524.34;5076505;28;20310;-37
2023/07/20 02:10:59;;;;;;;0.40;0.40;;;26.20;66.30;;;26.63;51.10;94527.34;5077238;28;20195;-39
2023/07/20 02:13:27;;;;;;;0.20;0.20;;;26.20;66.20;;;26.61;51.00;94532.22;5076779;28;20198;-39
2023/07/20 02:15:54;;;;;;;0.25;0.25;;;26.20;66.30;;;26.60;51.13;94536.03;5076456;28;20222;-39
2023/07/20 02:18:21;;;;;;;0.30;0.30;;;26.20;66.40;;;26.60;51.56;94528.75;5075715;28;20561;-39
2023/07/20 02:20:48;;;;;;;0.30;0.30;;;26.20;66.70;;;26.63;51.60;94530.03;5076659;28;20197;-39
2023/07/20 02:23:16;;;;;;;0.30;0.30;;;26.20;66.80;;;26.63;51.19;94525.44;5075650;28;20699;-39
2023/07/20 02:25:44;;;;;;;0.22;0.22;;;26.20;66.80;;;26.65;51.55;94531.31;5076630;28;20230;-39
2023/07/20 02:28:15;;;;;;;0.30;0.30;;;26.20;66.90;;;26.67;51.89;94537.22;5075553;28;20243;-38
2023/07/20 02:30:42;;;;;;;0.30;0.30;;;26.20;66.90;;;26.67;51.67;94534.53;5076926;28;20196;-40
2023/07/20 02:33:09;;;;;;;0.22;0.22;;;26.20;66.90;;;26.69;51.70;94528.81;5076482;28;20547;-39
2023/07/20 02:35:36;;;;;;;0.30;0.30;;;26.20;66.60;;;26.66;51.46;94526.75;5075097;28;20536;-39
2023/07/20 02:38:03;;;;;;;0.30;0.30;;;26.20;66.70;;;26.68;51.64;94543.38;5076528;28;20194;-39
2023/07/20 02:40:30;;;;;;;0.30;0.30;;;26.30;66.80;;;26.65;51.53;94528.63;5076765;28;20232;-39
2023/07/20 02:42:57;;;;;;;0.30;0.30;;;26.20;66.50;;;26.67;51.60;94539.91;5058863;28;20243;-39
2023/07/20 02:45:24;;;;;;;0.30;0.30;;;26.20;66.70;;;26.67;51.33;94531.84;5075034;28;20239;-39
2023/07/20 02:47:51;;;;;;;0.35;0.35;;;26.20;66.70;;;26.66;51.11;94538.31;5075129;28;20204;-39
2023/07/20 02:50:19;;;;;;;0.20;0.20;;;26.20;66.80;;;26.67;51.27;94539.09;5076028;28;20274;-38
2023/07/20 02:52:46;;;;;;;0.30;0.30;;;26.20;66.90;;;26.66;51.54;94534.84;5076107;28;20211;-39
2023/07/20 02:55:13;;;;;;;0.38;0.38;;;26.30;66.70;;;26.64;51.04;94539.72;5074977;28;20217;-39
2023/07/20 02:57:40;;;;;;;0.30;0.30;;;26.20;66.40;;;26.61;51.37;94545.69;5075900;28;20296;-39
2023/07/20 03:00:09;;;;;;;0.30;0.30;;;26.20;66.40;;;26.60;51.57;94544.91;5076114;28;20204;-39
2023/07/20 03:02:36;;;;;;;0.20;0.20;;;26.20;66.60;;;26.59;51.40;94545.22;5074852;28;20226;-39
2023/07/20 03:05:07;;;;;;;0.30;0.30;;;26.20;66.70;;;26.57;51.29;94558.94;5075569;28;20607;-39
2023/07/20 03:07:34;;;;;;;0.32;0.32;;;26.20;66.50;;;26.53;51.31;94560.66;5075735;28;20179;-39
2023/07/20 03:10:01;;;;;;;0.30;0.30;;;26.20;66.50;;;26.51;51.29;94565.53;5075631;28;20196;-39
2023/07/20 03:12:29;;;;;;;0.30;0.30;;;26.20;66.50;;;26.49;51.48;94581.19;5075874;28;20232;-39
2023/07/20 03:14:56;;;;;;;0.30;0.30;;;26.10;66.20;;;26.45;51.17;94583.69;5074439;28;20627;-39
2023/07/20 03:17:25;;;;;;;0.30;0.30;;;26.10;66.30;;;26.45;51.34;94586.38;5075384;28;20235;-38
2023/07/20 03:19:52;;;;;;;0.30;0.30;;;26.10;66.40;;;26.45;51.28;94577.50;5075479;28;20270;-38
2023/07/20 03:22:21;;;;;;;0.50;0.50;;;26.10;66.70;;;26.46;51.87;94579.88;5091582;28;20238;-38
2023/07/20 03:24:48;;;;;;;0.30;0.30;;;26.00;66.70;;;26.46;51.32;94587.94;5091170;28;20261;-38
2023/07/20 03:27:15;;;;;;;0.28;0.28;;;26.10;66.80;;;26.44;51.41;94582.09;5075888;28;20241;-38
2023/07/20 03:29:44;;;;;;;0.20;0.20;;;26.10;66.90;;;26.44;51.57;94586.66;5074378;28;20205;-38
2023/07/20 03:32:11;;;;;;;0.30;0.30;;;26.00;66.80;;;26.44;51.63;94579.41;5075318;28;20198;-38
2023/07/20 03:34:38;;;;;;;0.30;0.30;;;26.10;67.00;;;26.46;51.96;94579.88;5075898;28;20220;-37
2023/07/20 03:37:06;;;;;;;0.30;0.30;;;26.00;67.10;;;26.45;51.75;94583.69;5074203;28;20213;-38
2023/07/20 03:39:33;;;;;;;0.25;0.25;;;26.10;66.90;;;26.44;51.53;94587.47;5074238;28;20201;-38
2023/07/20 03:42:00;;;;;;;0.30;0.30;;;26.00;67.00;;;26.44;52.03;94581.28;5075492;28;20204;-38
2023/07/20 03:44:27;;;;;;;0.30;0.30;;;26.10;67.10;;;26.42;51.70;94583.50;5074820;28;20679;-38
2023/07/20 03:46:54;;;;;;;0.40;0.40;;;26.10;67.10;;;26.42;51.68;94586.19;5074160;28;20273;-37
2023/07/20 03:49:22;;;;;;;0.30;0.30;;;26.00;67.00;;;26.41;51.78;94592.66;5075046;28;20652;-38
2023/07/20 03:51:49;;;;;;;0.30;0.30;;;26.00;66.70;;;26.41;51.76;94593.44;5074136;28;20235;-37
2023/07/20 03:54:16;;;;;;;0.30;0.30;;;26.00;66.90;;;26.40;51.63;94582.97;5075069;28;20187;-37
2023/07/20 03:56:43;;;;;;;0.30;0.30;;;26.00;66.90;;;26.39;51.67;94579.50;5074769;28;20235;-37
2023/07/20 03:59:11;;;;;;;0.20;0.20;;;26.00;66.90;;;26.38;51.58;94588.66;5074014;28;20197;-37
2023/07/20 04:01:39;;;;;;;0.30;0.30;;;26.00;66.90;;;26.37;51.34;94593.22;5075230;28;20590;-38
2023/07/20 04:04:08;;;;;;;0.32;0.32;;;26.00;66.70;;;26.37;51.62;94592.44;5074029;28;20200;-37
2023/07/20 04:06:36;;;;;;;0.32;0.32;;;26.00;66.90;;;26.36;52.08;94593.53;5073958;28;20270;-38
2023/07/20 04:09:04;;;;;;;0.30;0.30;;;26.00;67.10;;;26.35;51.51;94598.13;5074884;28;20196;-37
2023/07/20 04:11:32;;;;;;;0.30;0.30;;;26.00;67.20;;;26.34;51.63;94598.41;5074787;28;20647;-37
2023/07/20 04:13:59;;;;;;;0.40;0.40;;;26.00;67.00;;;26.33;51.81;94602.19;5073890;28;20319;-37
2023/07/20 04:16:27;;;;;;;0.38;0.38;;;26.00;66.90;;;26.32;51.85;94600.63;5075018;28;20280;-37
2023/07/20 04:18:57;;;;;;;0.50;0.50;;;26.00;68.00;;;26.34;51.87;94604.59;5078997;28;20192;-38
2023/07/20 04:21:27;;;;;;;0.30;0.30;;;26.00;67.50;;;26.34;52.23;94606.47;5079280;28;20182;-38
2023/07/20 04:23:56;;;;;;;0.40;0.40;;;26.00;67.50;;;26.34;52.22;94595.72;5078180;28;20288;-37
2023/07/20 04:26:24;;;;;;;0.20;0.20;;;26.00;67.40;;;26.35;52.14;94605.38;5077812;28;20583;-37
2023/07/20 04:28:52;;;;;;;0.30;0.30;;;26.00;67.30;;;26.36;51.98;94604.28;5077648;28;20209;-37
2023/07/20 04:31:38;;;;;;;0.30;0.30;;;26.00;67.50;;;26.37;52.36;94608.59;5078700;28;20197;-38
2023/07/20 04:34:06;;;;;;;0.30;0.30;;;26.00;68.60;;;26.37;52.36;94609.38;5078120;28;20636;-37
2023/07/20 04:36:35;;;;;;;0.30;0.30;;;26.00;67.50;;;26.38;52.25;94607.50;5077415;28;20246;-37
2023/07/20 04:39:04;;;;;;;0.40;0.40;;;26.00;67.20;;;26.37;52.12;94619.34;5077843;28;20237;-37
2023/07/20 04:41:43;;;;;;;0.30;0.30;;;26.00;67.00;;;26.34;51.94;94609.16;5063114;28;20191;-37
2023/07/20 04:44:10;;;;;;;0.30;0.30;;;26.00;66.90;;;26.32;51.95;94606.00;5078119;28;20256;-38
2023/07/20 04:46:37;;;;;;;0.30;0.30;;;26.00;67.10;;;26.34;52.19;94611.84;5077373;28;20197;-38
2023/07/20 04:49:04;;;;;;;0.30;0.30;;;26.00;67.30;;;26.35;52.11;94618.84;5078352;28;20509;-38
2023/07/20 04:51:36;;;;;;;0.40;0.40;;;26.00;66.80;;;26.33;51.82;94616.44;5077940;28;20625;-38
2023/07/20 04:54:03;;;;;;;0.30;0.30;;;26.00;66.90;;;26.32;51.68;94614.84;5077304;28;20639;-39
2023/07/20 04:56:35;;;;;;;0.30;0.30;;;26.00;67.00;;;26.33;52.06;94612.94;5077132;28;20591;-39
2023/07/20 04:59:05;;;;;;;0.30;0.30;;;26.00;67.30;;;26.34;52.11;94619.91;5077651;28;20284;-38
2023/07/20 05:01:32;;;;;;;0.30;0.30;;;26.00;67.30;;;26.34;51.84;94619.91;5077191;28;20232;-38
2023/07/20 05:03:59;;;;;;;0.30;0.30;;;26.00;67.30;;;26.34;52.13;94619.91;5078639;28;20197;-39
2023/07/20 05:06:26;;;;;;;0.30;0.30;;;26.00;67.30;;;26.34;52.11;94614.53;5076911;28;20639;-40
2023/07/20 05:08:53;;;;;;;0.30;0.30;;;26.00;67.50;;;26.34;52.48;94620.75;5077016;28;20219;-39
2023/07/20 05:11:21;;;;;;;0.40;0.40;;;25.90;67.50;;;26.34;52.04;94618.03;5076983;28;20657;-38
2023/07/20 05:13:49;;;;;;;0.30;0.30;;;26.00;67.70;;;26.36;52.70;94620.44;5076918;28;20537;-38
2023/07/20 05:16:17;;;;;;;0.30;0.30;;;26.00;67.90;;;26.36;52.28;94626.59;5076675;28;20227;-38
2023/07/20 05:18:46;;;;;;;0.32;0.32;;;26.00;68.00;;;26.39;52.65;94633.28;5060663;28;20231;-38
2023/07/20 05:21:13;;;;;;;0.30;0.30;;;26.00;68.00;;;26.41;52.48;94633.75;5077150;28;20220;-37
2023/07/20 05:23:41;;;;;;;0.30;0.30;;;26.00;68.00;;;26.42;52.34;94640.75;5077273;28;20204;-37
2023/07/20 05:26:09;;;;;;;0.30;0.30;;;26.00;67.80;;;26.44;52.61;94640.44;5076843;28;20200;-36
2023/07/20 05:28:36;;;;;;;0.40;0.40;;;26.00;67.80;;;26.46;52.35;94643.63;5077253;28;20197;-36
2023/07/20 05:31:04;;;;;;;0.30;0.30;;;26.10;67.70;;;26.49;52.32;94645.75;5077911;28;20715;-36
2023/07/20 05:33:31;;;;;;;0.30;0.30;;;26.00;67.70;;;26.49;52.64;94648.44;5077687;28;20207;-36
2023/07/20 05:35:58;;;;;;;0.30;0.30;;;26.10;68.00;;;26.49;52.36;94643.03;5078360;28;20711;-36
2023/07/20 05:38:26;;;;;;;0.40;0.40;;;26.10;67.70;;;26.50;52.16;94641.94;5078214;28;20194;-37
2023/07/20 05:41:03;;;;;;;0.30;0.30;;;26.10;67.60;;;26.50;52.39;94648.13;5078501;28;20193;-35
2023/07/20 05:43:31;;;;;;;0.30;0.30;;;26.10;67.70;;;26.51;52.61;94647.03;5077726;28;20171;-36
2023/07/20 05:45:58;;;;;;;0.30;0.30;;;26.10;67.50;;;26.52;52.68;94648.63;5077737;28;20223;-36
2023/07/20 05:48:25;;;;;;;0.30;0.30;;;26.10;67.60;;;26.49;52.35;94641.13;5078192;28;20182;-36
2023/07/20 05:50:52;;;;;;;0.30;0.30;;;26.10;67.50;;;26.55;52.04;94651.78;5078436;28;20222;-36
2023/07/20 05:53:19;;;;;;;0.30;0.30;;;26.10;67.40;;;26.56;52.44;94648.00;5076938;28;20205;-38
2023/07/20 05:55:53;;;;;;;0.30;0.30;;;26.10;67.20;;;26.55;52.14;94649.09;5077915;28;20218;-36
2023/07/20 05:58:20;;;;;;;0.30;0.30;;;26.10;67.40;;;26.55;52.37;94647.22;5078262;28;20572;-37
2023/07/20 06:00:49;;;;;;;0.30;0.30;;;26.10;67.60;;;26.56;52.21;94648.00;5076806;28;20593;-36
2023/07/20 06:03:16;;;;;;;0.30;0.30;;;26.10;67.50;;;26.58;52.39;94651.22;5077589;28;20699;-36
2023/07/20 06:05:43;;;;;;;0.30;0.30;;;26.20;67.50;;;26.58;52.14;94665.44;5077422;28;20389;-35
2023/07/20 06:08:11;;;;;;;0.30;0.30;;;26.20;67.40;;;26.58;52.15;94660.06;5078159;28;20219;-36
2023/07/20 06:10:38;;;;;;;0.30;0.30;;;26.20;67.50;;;26.59;52.09;94658.97;5076838;28;20225;-35
2023/07/20 06:13:06;;;;;;;0.30;0.30;;;26.20;67.50;;;26.61;52.12;94658.66;5076545;28;20237;-36
2023/07/20 06:15:38;;;;;;;0.30;0.30;;;26.20;67.30;;;26.59;52.14;94656.28;5077327;28;20199;-36
2023/07/20 06:18:05;;;;;;;0.20;0.20;;;26.20;67.20;;;26.61;52.08;94653.28;5076740;28;20231;-36
2023/07/20 06:20:32;;;;;;;0.30;0.30;;;26.20;67.20;;;26.61;52.14;94659.47;5077409;28;20190;-36
2023/07/20 06:22:59;;;;;;;0.20;0.20;;;26.20;67.20;;;26.61;51.87;94662.16;5077156;28;20198;-36
2023/07/20 06:25:27;;;;;;;0.30;0.30;;;26.20;67.10;;;26.63;51.69;94667.22;5077217;28;20698;-36
2023/07/20 06:27:56;;;;;;;0.30;0.30;;;26.20;66.90;;;26.60;52.43;94657.88;5076298;28;20587;-35
2023/07/20 06:30:24;;;;;;;0.35;0.35;;;26.20;68.00;;;26.61;52.26;94653.28;5077233;28;20293;-36
2023/07/20 06:32:52;;;;;;;0.20;0.20;;;26.20;67.20;;;26.63;52.06;94662.63;5077335;28;20268;-36
2023/07/20 06:35:19;;;;;;;0.30;0.30;;;26.20;67.20;;;26.64;52.28;94655.38;5077349;28;20194;-36
2023/07/20 06:37:46;;;;;;;0.20;0.20;;;26.30;67.20;;;26.65;52.31;94660.47;5076864;28;20231;-36
2023/07/20 06:40:13;;;;;;;0.30;0.30;;;26.30;67.30;;;26.67;52.04;94660.97;5076224;28;20205;-36
2023/07/20 06:42:44;;;;;;;0.30;0.30;;;26.30;67.30;;;26.67;52.59;94652.06;5077145;28;20289;-36
2023/07/20 06:45:14;;;;;;;0.20;0.20;;;26.20;67.20;;;26.70;52.63;94654.19;5075531;28;20690;-36
2023/07/20 06:47:41;;;;;;;0.22;0.22;;;26.30;67.30;;;26.71;52.06;94654.97;5092344;28;20195;-36
2023/07/20 06:50:09;;;;;;;0.30;0.30;;;26.30;67.30;;;26.71;52.08;94661.16;5077230;28;20551;-36
2023/07/20 06:52:43;;;;;;;0.25;0.25;;;26.30;67.40;;;26.73;52.20;94666.22;5077267;28;20183;-36
2023/07/20 06:55:10;;;;;;;0.30;0.30;;;26.30;67.30;;;26.74;52.28;94657.84;5076946;28;20599;-36
2023/07/20 06:57:37;;;;;;;0.20;0.20;;;26.30;67.30;;;26.76;52.16;94649.53;5076553;28;20670;-36
2023/07/20 07:00:06;;;;;;;0.30;0.30;;;26.40;67.40;;;26.77;52.47;94657.28;5077399;28;20552;-35
2023/07/20 07:02:34;;;;;;;0.30;0.30;;;26.40;67.20;;;26.78;51.82;94661.59;5076467;28;20191;-36
2023/07/20 07:05:03;;;;;;;0.28;0.28;;;26.40;67.20;;;26.79;52.00;94663.19;5076426;28;20192;-36
2023/07/20 07:07:46;;;;;;;0.20;0.20;;;26.40;67.20;;;26.79;51.75;94668.56;5076485;28;20513;-36
2023/07/20 07:10:14;;;;;;;0.32;0.32;;;26.40;68.00;;;26.81;52.06;94671.72;5076395;28;20196;-35
2023/07/20 07:12:41;;;;;;;0.20;0.20;;;26.40;67.10;;;26.83;51.63;94666.03;5075264;28;20270;-36
2023/07/20 07:15:10;;;;;;;0.20;0.20;;;26.40;67.00;;;26.84;52.25;94668.44;5076424;28;20191;-36
2023/07/20 07:17:38;;;;;;;0.30;0.30;;;26.40;67.00;;;26.86;51.81;94668.13;5075934;28;20220;-36
2023/07/20 07:20:07;;;;;;;0.30;0.30;;;26.40;67.20;;;26.88;52.32;94667.81;5076429;28;20200;-36
2023/07/20 07:22:37;;;;;;;0.20;0.20;;;26.50;67.20;;;26.89;51.92;94664.84;5076407;28;20588;-36
2023/07/20 07:25:05;;;;;;;0.20;0.20;;;26.50;67.10;;;26.92;51.61;94663.47;5076531;28;20207;-36
2023/07/20 07:27:32;;;;;;;0.40;0.40;;;26.50;67.10;;;26.93;51.65;94657.75;5075941;28;20188;-36
2023/07/20 07:29:59;;;;;;;0.20;0.20;;;26.50;67.10;;;26.93;52.25;94657.75;5076033;28;20296;-36
2023/07/20 07:32:26;;;;;;;0.30;0.30;;;26.50;67.10;;;26.95;51.62;94660.97;5075083;28;20627;-36
2023/07/20 07:34:53;;;;;;;0.20;0.20;;;26.50;67.10;;;26.97;52.25;94666.81;5076011;28;20195;-35
2023/07/20 07:37:21;;;;;;;0.20;0.20;;;26.50;67.10;;;26.99;52.30;94661.16;5074517;28;20247;-36
2023/07/20 07:39:48;;;;;;;0.30;0.30;;;26.50;67.20;;;27.00;51.52;94668.91;5075930;28;20302;-36
2023/07/20 07:42:15;;;;;;;0.32;0.32;;;26.60;67.10;;;27.02;51.96;94657.06;5075388;28;20576;-36
2023/07/20 07:44:42;;;;;;;0.20;0.20;;;26.60;67.10;;;27.03;52.10;94651.38;5075619;28;20231;-37
2023/07/20 07:47:09;;;;;;;0.38;0.38;;;26.60;67.00;;;27.05;51.48;94653.75;5075699;28;20245;-36
2023/07/20 07:49:37;;;;;;;0.20;0.20;;;26.60;67.00;;;27.06;51.79;94649.94;5075742;28;20533;-36
2023/07/20 07:52:05;;;;;;;0.20;0.20;;;26.60;67.00;;;27.07;51.41;94656.94;5074807;28;20593;-36
2023/07/20 07:54:32;;;;;;;0.30;0.30;;;26.60;66.70;;;27.08;52.04;94653.16;5075820;28;20291;-36
2023/07/20 07:56:59;;;;;;;0.40;0.40;;;26.60;66.90;;;27.09;51.61;94655.53;5058311;28;20607;-36
2023/07/20 07:59:26;;;;;;;0.30;0.30;;;26.60;66.80;;;27.09;51.52;94655.53;5075876;28;20193;-36
2023/07/20 08:01:53;;;;;;;0.20;0.20;;;26.60;66.90;;;27.10;51.22;94664.38;5076002;28;20264;-36
2023/07/20 08:04:20;;;;;;;0.20;0.20;;;26.60;66.80;;;27.13;51.74;94666.50;5075723;28;20196;-36
2023/07/20 08:06:47;;;;;;;0.30;0.30;;;26.60;66.90;;;27.14;51.39;94665.41;5075675;28;20253;-36
2023/07/20 08:09:14;;;;;;;0.30;0.30;;;26.70;66.90;;;27.14;51.45;94662.69;5075500;28;20288;-36
2023/07/20 08:11:41;;;;;;;0.30;0.30;;;26.70;66.90;;;27.16;51.86;94657.81;5075474;28;20215;-36
2023/07/20 08:14:09;;;;;;;0.20;0.20;;;26.70;66.90;;;27.16;51.20;94658.59;5075688;28;20625;-36
2023/07/20 08:16:36;;;;;;;0.20;0.20;;;26.70;66.90;;;27.17;51.63;94652.13;5075334;28;20216;-36
2023/07/20 08:19:03;;;;;;;0.30;0.30;;;26.70;66.80;;;27.20;51.38;94660.69;5075871;28;20685;-36
2023/07/20 08:21:30;;;;;;;0.20;0.20;;;26.70;66.90;;;27.20;51.29;94653.41;5074996;28;20284;-36
2023/07/20 08:23:57;;;;;;;0.30;0.30;;;26.70;66.80;;;27.21;51.05;94659.56;5075440;28;20246;-36
2023/07/20 08:26:24;;;;;;;0.30;0.30;;;26.80;66.70;;;27.21;51.52;94659.56;5075110;28;20597;-36
2023/07/20 08:28:52;;;;;;;0.30;0.30;;;26.80;66.60;;;27.21;51.17;94665.78;5075586;28;20530;-36
2023/07/20 08:31:20;;;;;;;0.30;0.30;;;26.80;66.50;;;27.22;51.73;94661.19;5075164;28;20193;-36
2023/07/20 08:33:47;;;;;;;0.30;0.30;;;26.80;66.40;;;27.22;51.02;94656.59;5075189;28;20189;-36
2023/07/20 08:36:14;;;;;;;0.30;0.30;;;26.80;66.60;;;27.24;50.89;94665.16;5091422;28;20195;-36
2023/07/20 08:38:42;;;;;;;0.20;0.20;;;26.80;66.50;;;27.24;51.02;94662.47;5074826;28;20216;-36
2023/07/20 08:41:09;;;;;;;0.30;0.30;;;26.80;66.30;;;27.25;51.39;94653.28;5074046;28;20204;-36
2023/07/20 08:43:41;;;;;;;0.30;0.30;;;26.80;66.30;;;27.24;51.20;94653.59;5075186;28;20208;-36
2023/07/20 08:46:11;;;;;;;0.30;0.30;;;26.80;66.40;;;27.26;50.96;94662.19;5075372;28;20201;-36
2023/07/20 08:48:40;;;;;;;0.30;0.30;;;26.80;66.20;;;27.26;50.70;94657.56;5073991;28;20267;-36
2023/07/20 08:51:08;;;;;;;0.20;0.20;;;26.80;66.30;;;27.28;50.86;94659.97;5075336;28;20197;-36
2023/07/20 08:53:35;;;;;;;0.30;0.30;;;26.80;66.20;;;27.28;50.76;94655.38;5075190;28;20200;-36
2023/07/20 08:56:03;;;;;;;0.30;0.30;;;26.80;66.20;;;27.30;50.97;94652.38;5075026;28;20219;-36
2023/07/20 08:58:31;;;;;;;0.30;0.30;;;26.80;66.10;;;27.31;50.93;94654.75;5057268;28;20723;-36
2023/07/20 09:01:00;;;;;;;0.30;0.30;;;26.80;66.20;;;27.33;50.94;94651.75;5074976;28;20635;-36
2023/07/20 09:03:28;;;;;;;0.30;0.30;;;26.80;66.30;;;27.34;50.58;94642.56;5077062;28;20189;-36
2023/07/20 09:05:55;;;;;;;0.22;0.22;;;26.80;66.30;;;27.36;51.06;94637.69;5078613;28;20244;-36
2023/07/20 09:08:23;;;;;;;0.30;0.30;;;26.80;66.30;;;27.38;51.14;94645.47;5078532;28;20201;-36
2023/07/20 09:10:50;;;;;;;0.20;0.20;;;26.80;66.30;;;27.39;50.58;94649.75;5078417;28;20201;-36
2023/07/20 09:13:17;;;;;;;0.30;0.30;;;26.90;66.30;;;27.41;50.56;94651.06;5078476;28;20220;-36
2023/07/20 09:15:52;;;;;;;0.30;0.30;;;26.90;66.30;;;27.41;51.14;94651.06;5078619;28;20269;-36
2023/07/20 09:18:28;;;;;;;0.25;0.25;;;26.90;66.30;;;27.40;50.43;94649.44;5077687;28;20206;-36
2023/07/20 09:21:02;;;;;;;0.20;0.20;;;26.90;66.30;;;27.41;50.97;94644.88;5078431;28;20200;-36
2023/07/20 09:23:34;;;;;;;0.38;0.38;;;26.90;66.20;;;27.42;51.01;94641.09;5078442;28;20184;-36
2023/07/20 09:26:12;;;;;;;0.30;0.30;;;26.90;66.10;;;27.42;50.56;94641.09;5078799;28;20193;-36
2023/07/20 09:28:57;;;;;;;0.30;0.30;;;26.90;66.20;;;27.40;50.89;94641.34;5078430;28;20196;-36
2023/07/20 09:31:25;;;;;;;0.30;0.30;;;26.90;66.00;;;27.41;51.00;94634.91;5078125;28;20185;-36
2023/07/20 09:33:54;;;;;;;0.30;0.30;;;26.90;67.00;;;27.42;50.40;94631.09;5078780;28;20199;-36
2023/07/20 09:36:27;;;;;;;0.32;0.32;;;26.90;66.10;;;27.44;50.92;94628.91;5078091;28;20280;-36
2023/07/20 09:38:59;;;;;;;0.20;0.20;;;26.90;66.20;;;27.45;50.62;94627.00;5077868;28;20201;-36
2023/07/20 09:41:29;;;;;;;0.20;0.20;;;26.90;66.10;;;27.44;50.35;94623.53;5078246;28;20191;-36
2023/07/20 09:44:01;;;;;;;0.30;0.30;;;26.90;66.00;;;27.47;50.30;94622.13;5077897;28;20227;-36
2023/07/20 09:46:49;;;;;;;0.20;0.20;;;26.90;66.10;;;27.47;50.36;94622.91;5076867;28;20195;-36
2023/07/20 09:49:20;;;;;;;0.30;0.30;;;26.90;66.00;;;27.47;50.64;94617.50;5077889;28;20190;-36
2023/07/20 09:51:52;;;;;;;0.20;0.20;;;26.90;65.90;;;27.47;50.10;94617.50;5078149;28;20177;-36
2023/07/20 09:54:22;;;;;;;0.30;0.30;;;26.90;65.60;;;27.48;50.08;94627.19;5077754;28;20219;-36
2023/07/20 09:56:52;;;;;;;0.30;0.30;;;27.00;65.60;;;27.49;50.19;94625.31;5077615;28;20194;-36
2023/07/20 09:59:19;;;;;;;0.30;0.30;;;27.00;65.40;;;27.50;50.18;94620.72;5078371;28;20200;-36
2023/07/20 10:01:47;;;;;;;0.22;0.22;;;27.00;65.50;;;27.52;50.05;94613.13;5078023;28;20193;-36
2023/07/20 10:04:18;;;;;;;0.30;0.30;;;27.00;65.40;;;27.53;49.52;94604.72;5076975;28;20206;-36
2023/07/20 10:06:48;;;;;;;0.20;0.20;;;27.00;65.10;;;27.53;49.71;94610.13;5076880;28;20579;-36
2023/07/20 10:09:17;;;;;;;0.30;0.30;;;27.00;65.00;;;27.55;49.17;94609.78;5076449;28;20710;-36
2023/07/20 10:11:50;;;;;;;0.28;0.28;;;27.00;65.00;;;27.55;49.23;94613.31;5077692;28;20223;-36
2023/07/20 10:14:44;;;;;;;0.20;0.20;;;27.00;64.60;;;27.56;49.05;94603.31;5076398;28;20276;-36
2023/07/20 10:17:14;;;;;;;0.30;0.30;;;27.00;64.40;;;27.57;48.82;94608.38;5076395;28;20592;-36
2023/07/20 10:19:52;;;;;;;0.20;0.20;;;27.00;64.60;;;27.58;48.67;94606.50;5076298;28;20592;-36
2023/07/20 10:22:27;;;;;;;0.30;0.30;;;27.00;64.40;;;27.60;49.11;94617.75;5076416;28;20181;-36
2023/07/20 10:24:56;;;;;;;0.20;0.20;;;27.00;64.30;;;27.60;48.55;94615.88;5077577;28;20186;-36
2023/07/20 10:27:23;;;;;;;0.28;0.28;;;27.00;64.60;;;27.63;49.06;94611.75;5077028;28;20250;-36
2023/07/20 10:29:56;;;;;;;0.20;0.20;;;27.10;64.40;;;27.64;48.67;94618.75;5077473;28;20196;-36